SAS755 EKCH-EPGD
Flight info
| Callsign | SAS755 |
|---|---|
| Flight time | N/A |
| Altitude | 17000 |
| Route | SIMEG Z491 TELMO DCT ASBAX DCT RUMAR L983 DOMAG T240 OGDAV |
| Aircraft | AT76/M-SBDFGRY/S |
Departure
| Time | 2026-05-05 20:28 |
|---|---|
| Airport | Copenhagen Kastrup Airport (EKCH) |
Arrival
| Time | N/A |
|---|---|
| Airport | Gdańsk Lech Wałęsa Airport (EPGD) |
| Time | Latitude | Longitude | Altitude | Speed | Heading |
|---|---|---|---|---|---|
| 2026-05-05 20:09 | 55.62355 | 12.65604 | 20 ft | 0 kts | 37° |
| 2026-05-05 20:22 | 55.62355 | 12.65605 | 20 ft | 0 kts | 45° |
| 2026-05-05 20:22 | 55.62351 | 12.65616 | 20 ft | 4 kts | 125° |
| 2026-05-05 20:22 | 55.62325 | 12.65613 | 20 ft | 5 kts | 212° |
| 2026-05-05 20:22 | 55.62298 | 12.65496 | 22 ft | 11 kts | 262° |
| 2026-05-05 20:23 | 55.62295 | 12.65334 | 20 ft | 16 kts | 270° |
| 2026-05-05 20:23 | 55.62228 | 12.65184 | 20 ft | 22 kts | 192° |
| 2026-05-05 20:23 | 55.62080 | 12.65024 | 21 ft | 27 kts | 213° |
| 2026-05-05 20:23 | 55.61943 | 12.64832 | 20 ft | 23 kts | 225° |
| 2026-05-05 20:24 | 55.61827 | 12.64720 | 20 ft | 18 kts | 205° |
| 2026-05-05 20:24 | 55.61716 | 12.64607 | 20 ft | 19 kts | 212° |
| 2026-05-05 20:24 | 55.61610 | 12.64484 | 23 ft | 18 kts | 214° |
| 2026-05-05 20:24 | 55.61507 | 12.64367 | 20 ft | 17 kts | 212° |
| 2026-05-05 20:25 | 55.61407 | 12.64253 | 20 ft | 17 kts | 211° |
| 2026-05-05 20:25 | 55.61309 | 12.64140 | 20 ft | 17 kts | 213° |
| 2026-05-05 20:25 | 55.61205 | 12.64142 | 20 ft | 17 kts | 138° |
| 2026-05-05 20:25 | 55.61203 | 12.64325 | 20 ft | 15 kts | 70° |
| 2026-05-05 20:26 | 55.61234 | 12.64486 | 20 ft | 13 kts | 73° |
| 2026-05-05 20:26 | 55.61262 | 12.64635 | 20 ft | 12 kts | 70° |
| 2026-05-05 20:26 | 55.61290 | 12.64767 | 21 ft | 11 kts | 69° |
| 2026-05-05 20:26 | 55.61314 | 12.64855 | 21 ft | 0 kts | 41° |
| 2026-05-05 20:27 | 55.61333 | 12.64883 | 21 ft | 22 kts | 39° |
| 2026-05-05 20:27 | 55.61622 | 12.65333 | 18 ft | 87 kts | 39° |
| 2026-05-05 20:27 | 55.62180 | 12.66233 | 111 ft | 118 kts | 36° |
| 2026-05-05 20:27 | 55.62837 | 12.67090 | 529 ft | 127 kts | 27° |
| 2026-05-05 20:28 | 55.63571 | 12.67945 | 1093 ft | 126 kts | 39° |
| 2026-05-05 20:28 | 55.64202 | 12.68989 | 1648 ft | 122 kts | 43° |
| 2026-05-05 20:28 | 55.64806 | 12.70026 | 2186 ft | 120 kts | 43° |
| 2026-05-05 20:28 | 55.65401 | 12.71021 | 2688 ft | 118 kts | 41° |
| 2026-05-05 20:29 | 55.66011 | 12.71993 | 3189 ft | 118 kts | 41° |
| 2026-05-05 20:29 | 55.66661 | 12.73013 | 3478 ft | 134 kts | 41° |
| 2026-05-05 20:29 | 55.67409 | 12.74168 | 3695 ft | 149 kts | 40° |
| 2026-05-05 20:29 | 55.68268 | 12.75452 | 3754 ft | 174 kts | 39° |
| 2026-05-05 20:30 | 55.69212 | 12.76857 | 4104 ft | 179 kts | 39° |
| 2026-05-05 20:30 | 55.70170 | 12.78291 | 4506 ft | 181 kts | 40° |
| 2026-05-05 20:30 | 55.71135 | 12.79735 | 4937 ft | 180 kts | 39° |
| 2026-05-05 20:30 | 55.72079 | 12.81162 | 5394 ft | 176 kts | 43° |
| 2026-05-05 20:31 | 55.72577 | 12.83160 | 5639 ft | 188 kts | 90° |
| 2026-05-05 20:31 | 55.72071 | 12.85283 | 6001 ft | 193 kts | 135° |
| 2026-05-05 20:31 | 55.70864 | 12.86219 | 6448 ft | 191 kts | 175° |
| 2026-05-05 20:31 | 55.69590 | 12.86704 | 6741 ft | 192 kts | 153° |
| 2026-05-05 20:32 | 55.68349 | 12.87532 | 6978 ft | 194 kts | 172° |
| 2026-05-05 20:32 | 55.67052 | 12.88206 | 7274 ft | 196 kts | 156° |
| 2026-05-05 20:32 | 55.65819 | 12.89239 | 7627 ft | 195 kts | 160° |
| 2026-05-05 20:32 | 55.64534 | 12.89989 | 7991 ft | 194 kts | 161° |
| 2026-05-05 20:33 | 55.63287 | 12.90929 | 8358 ft | 195 kts | 159° |
| 2026-05-05 20:33 | 55.62012 | 12.91728 | 8669 ft | 196 kts | 165° |
| 2026-05-05 20:33 | 55.60703 | 12.92272 | 8930 ft | 193 kts | 189° |
| 2026-05-05 20:33 | 55.59510 | 12.91374 | 9203 ft | 191 kts | 218° |
| 2026-05-05 20:34 | 55.58469 | 12.89919 | 9564 ft | 190 kts | 225° |
| 2026-05-05 20:34 | 55.57531 | 12.88294 | 9923 ft | 188 kts | 229° |
| 2026-05-05 20:34 | 55.56645 | 12.86622 | 10286 ft | 184 kts | 230° |
| 2026-05-05 20:34 | 55.55770 | 12.84966 | 10598 ft | 184 kts | 230° |
| 2026-05-05 20:35 | 55.54885 | 12.83327 | 10902 ft | 184 kts | 229° |
| 2026-05-05 20:35 | 55.53993 | 12.81699 | 11191 ft | 185 kts | 229° |
| 2026-05-05 20:35 | 55.53096 | 12.80068 | 11485 ft | 185 kts | 229° |
| 2026-05-05 20:35 | 55.52194 | 12.78439 | 11785 ft | 186 kts | 229° |
| 2026-05-05 20:36 | 55.51112 | 12.77241 | 12032 ft | 196 kts | 195° |
| 2026-05-05 20:36 | 55.49728 | 12.77298 | 12261 ft | 202 kts | 180° |
| 2026-05-05 20:36 | 55.48323 | 12.77645 | 12505 ft | 205 kts | 178° |
| 2026-05-05 20:36 | 55.46902 | 12.78052 | 12757 ft | 207 kts | 177° |
| 2026-05-05 20:37 | 55.45474 | 12.78457 | 13018 ft | 208 kts | 178° |
| 2026-05-05 20:37 | 55.44058 | 12.78822 | 13294 ft | 207 kts | 179° |
| 2026-05-05 20:37 | 55.42629 | 12.79146 | 13597 ft | 206 kts | 180° |
| 2026-05-05 20:37 | 55.41198 | 12.79458 | 13849 ft | 207 kts | 180° |
| 2026-05-05 20:38 | 55.39761 | 12.79767 | 14077 ft | 208 kts | 180° |
| 2026-05-05 20:38 | 55.38328 | 12.80077 | 14310 ft | 208 kts | 180° |
| 2026-05-05 20:38 | 55.36896 | 12.80386 | 14572 ft | 209 kts | 181° |
| 2026-05-05 20:38 | 55.35457 | 12.80693 | 14808 ft | 209 kts | 180° |
| 2026-05-05 20:39 | 55.34062 | 12.81576 | 15008 ft | 225 kts | 147° |
| 2026-05-05 20:39 | 55.33093 | 12.83789 | 15182 ft | 236 kts | 123° |
| 2026-05-05 20:39 | 55.32448 | 12.86483 | 15381 ft | 241 kts | 110° |
| 2026-05-05 20:39 | 55.32061 | 12.89349 | 15573 ft | 243 kts | 104° |
| 2026-05-05 20:40 | 55.31762 | 12.92310 | 15768 ft | 245 kts | 102° |
| 2026-05-05 20:40 | 55.31485 | 12.95248 | 15958 ft | 246 kts | 103° |
| 2026-05-05 20:40 | 55.31189 | 12.98200 | 16144 ft | 247 kts | 104° |
| 2026-05-05 20:40 | 55.30850 | 13.01194 | 16341 ft | 248 kts | 105° |
| 2026-05-05 20:41 | 55.30504 | 13.04139 | 16525 ft | 249 kts | 105° |
| 2026-05-05 20:41 | 55.30150 | 13.07150 | 16716 ft | 250 kts | 105° |
| 2026-05-05 20:41 | 55.29795 | 13.10146 | 16826 ft | 254 kts | 105° |
| 2026-05-05 20:41 | 55.29432 | 13.13189 | 16876 ft | 260 kts | 105° |
| 2026-05-05 20:42 | 55.29055 | 13.16352 | 16899 ft | 267 kts | 105° |
| 2026-05-05 20:42 | 55.28674 | 13.19569 | 16908 ft | 272 kts | 105° |
| 2026-05-05 20:42 | 55.28288 | 13.22842 | 16914 ft | 277 kts | 105° |
| 2026-05-05 20:42 | 55.27890 | 13.26199 | 16915 ft | 281 kts | 105° |